createdAt,value
2017-08-02T00:00:44.127Z,0
2017-08-02T00:01:44.112Z,0
2017-08-02T00:02:44.429Z,0
2017-08-02T00:03:44.426Z,0
2017-08-02T00:04:44.784Z,0
2017-08-02T00:05:44.426Z,0
2017-08-02T00:06:44.747Z,0
2017-08-02T00:07:44.425Z,0
2017-08-02T00:08:44.417Z,0
2017-08-02T00:09:44.122Z,0
2017-08-02T00:10:44.739Z,0
2017-08-02T00:11:44.411Z,0
2017-08-02T00:12:44.733Z,0
2017-08-02T00:13:44.737Z,0
2017-08-02T00:14:44.098Z,0
2017-08-02T00:15:44.400Z,0
2017-08-02T00:16:44.079Z,0
2017-08-02T00:17:44.086Z,0
2017-08-02T00:18:44.404Z,0
2017-08-02T00:19:44.714Z,0
2017-08-02T00:20:44.732Z,0
2017-08-02T00:21:44.077Z,0
2017-08-02T00:22:44.714Z,0
2017-08-02T00:23:44.311Z,0
2017-08-02T00:24:44.439Z,0
2017-08-02T00:25:44.745Z,0
2017-08-02T00:26:44.400Z,0
2017-08-02T00:27:44.058Z,0
2017-08-02T00:28:44.067Z,0
2017-08-02T00:29:44.403Z,0
2017-08-02T00:30:44.690Z,0
2017-08-02T00:31:44.064Z,0
2017-08-02T00:32:44.369Z,0
2017-08-02T00:33:44.711Z,0
2017-08-02T00:34:44.379Z,0
2017-08-02T00:35:44.700Z,0
2017-08-02T00:36:44.375Z,0
2017-08-02T00:37:44.058Z,0
2017-08-02T00:38:44.678Z,0
2017-08-02T00:39:44.705Z,0
2017-08-02T00:40:44.032Z,0
2017-08-02T00:41:44.671Z,0
2017-08-02T00:42:44.668Z,0
2017-08-02T00:43:44.050Z,0
2017-08-02T00:44:44.694Z,0
2017-08-02T00:45:44.665Z,0
2017-08-02T00:46:44.043Z,0
2017-08-02T00:47:44.661Z,0
2017-08-02T00:48:44.337Z,0
2017-08-02T00:49:44.693Z,0
2017-08-02T00:50:44.345Z,0
2017-08-02T00:51:44.664Z,0
2017-08-02T00:52:44.702Z,0
2017-08-02T00:53:44.669Z,0
2017-08-02T00:54:44.370Z,0
2017-08-02T00:55:44.378Z,0
2017-08-02T00:56:44.002Z,0
2017-08-02T00:57:44.010Z,0
2017-08-02T00:58:44.668Z,0
2017-08-02T00:59:44.644Z,0
2017-08-02T01:00:44.038Z,0
2017-08-02T01:01:44.760Z,0
2017-08-02T01:02:44.545Z,0
2017-08-02T01:03:44.348Z,0
2017-08-02T01:04:44.311Z,0
2017-08-02T01:05:44.308Z,0
2017-08-02T01:06:44.634Z,0
2017-08-02T01:07:44.625Z,0
2017-08-02T01:08:43.986Z,0
2017-08-02T01:09:44.304Z,0
2017-08-02T01:10:44.297Z,0
2017-08-02T01:11:44.617Z,0
2017-08-02T01:12:44.613Z,0
2017-08-02T01:13:43.991Z,0
2017-08-02T01:14:44.327Z,0
2017-08-02T01:15:44.338Z,0
2017-08-02T01:16:44.611Z,0
2017-08-02T01:17:44.296Z,0
2017-08-02T01:18:44.302Z,0
2017-08-02T01:19:44.304Z,0
2017-08-02T01:20:44.612Z,0
2017-08-02T01:21:43.634Z,0
2017-08-02T01:22:43.629Z,0
2017-08-02T01:23:43.626Z,0
2017-08-02T01:24:43.634Z,0
2017-08-02T01:25:44.262Z,0
2017-08-02T01:26:44.296Z,0
2017-08-02T01:27:44.659Z,0
2017-08-02T01:28:44.271Z,0
2017-08-02T01:29:43.936Z,0
2017-08-02T01:30:43.935Z,0
2017-08-02T01:31:44.294Z,0
2017-08-02T01:32:44.276Z,0
2017-08-02T01:33:44.243Z,0
2017-08-02T01:34:44.244Z,0
2017-08-02T01:35:44.257Z,0
2017-08-02T01:36:47.543Z,0
2017-08-02T01:37:44.268Z,0
2017-08-02T01:38:43.946Z,0
2017-08-02T01:39:44.564Z,0
2017-08-02T01:40:44.242Z,0
2017-08-02T01:41:43.678Z,0
2017-08-02T01:42:44.604Z,0
2017-08-02T01:43:44.238Z,0
2017-08-02T01:44:43.613Z,0
2017-08-02T01:45:44.232Z,0
2017-08-02T01:46:44.225Z,0
2017-08-02T01:47:44.546Z,0
2017-08-02T01:48:44.213Z,0
2017-08-02T01:49:43.921Z,0
2017-08-02T01:50:44.215Z,0
2017-08-02T01:51:44.214Z,0
2017-08-02T01:52:44.216Z,0
2017-08-02T01:53:44.214Z,0
2017-08-02T01:54:43.899Z,0
2017-08-02T01:55:44.233Z,0
2017-08-02T01:56:44.202Z,0
2017-08-02T01:57:44.543Z,0
2017-08-02T01:58:44.535Z,0
2017-08-02T01:59:44.196Z,0
2017-08-02T02:00:43.876Z,0
2017-08-02T02:01:44.208Z,0
2017-08-02T02:02:43.874Z,0
2017-08-02T02:03:43.875Z,0
2017-08-02T02:04:44.220Z,0
2017-08-02T02:05:44.527Z,0
2017-08-02T02:06:44.190Z,0
2017-08-02T02:07:43.868Z,0
2017-08-02T02:08:43.898Z,0
2017-08-02T02:09:43.858Z,0
2017-08-02T02:10:43.546Z,0
2017-08-02T02:11:43.861Z,0
2017-08-02T02:12:44.192Z,0
2017-08-02T02:13:44.489Z,0
2017-08-02T02:14:43.837Z,0
2017-08-02T02:15:44.180Z,0
2017-08-02T02:16:44.197Z,0
2017-08-02T02:17:44.178Z,0
2017-08-02T02:18:44.154Z,0
2017-08-02T02:19:44.154Z,0
2017-08-02T02:20:43.832Z,0
2017-08-02T02:21:44.468Z,0
2017-08-02T02:22:43.827Z,0
2017-08-02T02:23:43.828Z,0
2017-08-02T02:24:44.146Z,0
2017-08-02T02:25:44.150Z,0
2017-08-02T02:26:44.453Z,0
2017-08-02T02:27:43.546Z,0
2017-08-02T02:28:44.132Z,0
2017-08-02T02:29:43.846Z,0
2017-08-02T02:30:44.146Z,0
2017-08-02T02:31:44.148Z,0
2017-08-02T02:32:44.124Z,0
2017-08-02T02:33:43.806Z,0
2017-08-02T02:34:43.796Z,0
2017-08-02T02:35:44.118Z,0
2017-08-02T02:36:44.123Z,0
2017-08-02T02:37:44.180Z,0
2017-08-02T02:38:44.445Z,0
2017-08-02T02:39:43.848Z,0
2017-08-02T02:40:43.783Z,0
2017-08-02T02:41:44.126Z,0
2017-08-02T02:42:44.103Z,0
2017-08-02T02:43:44.117Z,0
2017-08-02T02:44:44.459Z,0
2017-08-02T02:45:44.112Z,0
2017-08-02T02:46:44.108Z,0
2017-08-02T02:47:44.412Z,0
2017-08-02T02:48:44.106Z,0
2017-08-02T02:49:44.407Z,0
2017-08-02T02:50:44.092Z,0
2017-08-02T02:51:44.419Z,0
2017-08-02T02:52:44.421Z,0
2017-08-02T02:53:43.432Z,0
2017-08-02T02:54:43.756Z,0
2017-08-02T02:55:44.404Z,0
2017-08-02T02:56:44.088Z,0
2017-08-02T02:57:44.083Z,0
2017-08-02T02:58:43.741Z,0
2017-08-02T02:59:44.394Z,0
2017-08-02T03:00:44.373Z,0
2017-08-02T03:01:44.062Z,0
2017-08-02T03:02:44.054Z,0
2017-08-02T03:03:44.086Z,0
2017-08-02T03:04:44.395Z,0
2017-08-02T03:05:43.740Z,0
2017-08-02T03:06:43.745Z,0
2017-08-02T03:07:44.065Z,0
2017-08-02T03:08:43.744Z,0
2017-08-02T03:09:44.375Z,0
2017-08-02T03:10:43.715Z,0
2017-08-02T03:11:43.725Z,0
2017-08-02T03:12:44.082Z,0
2017-08-02T03:13:43.710Z,0
2017-08-02T03:14:43.733Z,0
2017-08-02T03:15:43.716Z,0
2017-08-02T03:16:44.367Z,0
2017-08-02T03:17:45.716Z,0
2017-08-02T03:18:44.015Z,0
2017-08-02T03:19:44.346Z,0
2017-08-02T03:20:44.008Z,0
2017-08-02T03:21:44.037Z,0
2017-08-02T03:22:44.004Z,0
2017-08-02T03:23:44.355Z,0
2017-08-02T03:24:44.319Z,0
2017-08-02T03:25:43.776Z,0
2017-08-02T03:26:44.015Z,0
2017-08-02T03:27:44.014Z,0
2017-08-02T03:28:44.316Z,0
2017-08-02T03:29:44.007Z,0
2017-08-02T03:30:43.710Z,0
2017-08-02T03:31:43.685Z,0
2017-08-02T03:32:44.309Z,0
2017-08-02T03:33:44.002Z,0
2017-08-02T03:34:43.019Z,0
2017-08-02T03:35:43.680Z,0
2017-08-02T03:36:43.977Z,0
2017-08-02T03:37:43.989Z,5
2017-08-02T03:38:43.965Z,5
2017-08-02T03:39:43.969Z,5
2017-08-02T03:40:44.326Z,5
2017-08-02T03:41:44.280Z,5
2017-08-02T03:42:43.960Z,5
2017-08-02T03:43:43.961Z,5
2017-08-02T03:44:44.258Z,5
2017-08-02T03:45:44.276Z,5
2017-08-02T03:46:43.991Z,10
2017-08-02T03:47:44.291Z,10
2017-08-02T03:48:44.306Z,10
2017-08-02T03:49:43.956Z,15
2017-08-02T03:50:43.334Z,15
2017-08-02T03:51:43.955Z,15
2017-08-02T03:52:43.957Z,20
2017-08-02T03:53:44.267Z,20
2017-08-02T03:54:43.945Z,20
2017-08-02T03:55:43.606Z,20
2017-08-02T03:56:43.933Z,20
2017-08-02T03:57:43.603Z,25
2017-08-02T03:58:43.914Z,25
2017-08-02T03:59:44.248Z,25
2017-08-02T04:00:44.239Z,25
2017-08-02T04:01:43.610Z,25
2017-08-02T04:02:43.907Z,30
2017-08-02T04:03:43.908Z,30
2017-08-02T04:04:44.262Z,30
2017-08-02T04:05:43.948Z,35
2017-08-02T04:06:43.901Z,35
2017-08-02T04:07:43.919Z,35
2017-08-02T04:08:44.215Z,40
2017-08-02T04:09:43.896Z,40
2017-08-02T04:10:44.242Z,40
2017-08-02T04:11:43.954Z,45
2017-08-02T04:12:44.241Z,45
2017-08-02T04:13:43.904Z,45
2017-08-02T04:14:44.228Z,50
2017-08-02T04:15:44.232Z,50
2017-08-02T04:16:44.210Z,55
2017-08-02T04:17:43.888Z,55
2017-08-02T04:18:44.194Z,60
2017-08-02T04:19:43.879Z,60
2017-08-02T04:20:44.213Z,65
2017-08-02T04:21:44.205Z,70
2017-08-02T04:22:43.863Z,75
2017-08-02T04:23:44.188Z,75
2017-08-02T04:24:44.205Z,80
2017-08-02T04:25:44.179Z,80
2017-08-02T04:26:43.879Z,80
2017-08-02T04:27:43.552Z,85
2017-08-02T04:28:43.528Z,85
2017-08-02T04:29:43.871Z,90
2017-08-02T04:30:43.524Z,90
2017-08-02T04:31:43.879Z,90
2017-08-02T04:32:44.166Z,95
2017-08-02T04:33:43.210Z,95
2017-08-02T04:34:43.515Z,95
2017-08-02T04:35:44.212Z,95
2017-08-02T04:36:43.527Z,100
2017-08-02T04:37:43.834Z,100
2017-08-02T04:38:43.512Z,100
2017-08-02T04:39:43.836Z,100
2017-08-02T04:40:43.509Z,105
2017-08-02T04:41:44.149Z,110
2017-08-02T04:42:43.837Z,110
2017-08-02T04:43:44.144Z,110
2017-08-02T04:44:43.512Z,115
2017-08-02T04:45:43.821Z,115
2017-08-02T04:46:44.146Z,115
2017-08-02T04:47:44.179Z,120
2017-08-02T04:48:43.810Z,120
2017-08-02T04:49:43.832Z,125
2017-08-02T04:50:44.137Z,125
2017-08-02T04:51:44.147Z,130
2017-08-02T04:52:43.807Z,130
2017-08-02T04:53:43.821Z,130
2017-08-02T04:54:43.492Z,135
2017-08-02T04:55:43.479Z,135
2017-08-02T04:56:44.136Z,135
2017-08-02T04:57:44.118Z,135
2017-08-02T04:58:43.508Z,135
2017-08-02T04:59:43.797Z,135
2017-08-02T05:00:43.790Z,135
2017-08-02T05:01:43.848Z,135
2017-08-02T05:02:43.155Z,135
2017-08-02T05:03:44.130Z,135
2017-08-02T05:04:43.788Z,135
2017-08-02T05:05:43.145Z,135
2017-08-02T05:06:44.121Z,140
2017-08-02T05:07:43.794Z,140
2017-08-02T05:08:44.164Z,145
2017-08-02T05:09:43.797Z,135
2017-08-02T05:10:43.798Z,135
2017-08-02T05:11:43.776Z,130
2017-08-02T05:12:43.792Z,125
2017-08-02T05:13:44.092Z,125
2017-08-02T05:14:43.774Z,125
2017-08-02T05:15:43.777Z,125
2017-08-02T05:16:43.772Z,130
2017-08-02T05:17:43.762Z,130
2017-08-02T05:18:43.759Z,130
2017-08-02T05:19:43.765Z,130
2017-08-02T05:20:43.763Z,130
2017-08-02T05:21:43.770Z,130
2017-08-02T05:22:43.760Z,130
2017-08-02T05:23:43.767Z,130
2017-08-02T05:24:43.753Z,130
2017-08-02T05:25:43.441Z,135
2017-08-02T05:26:44.075Z,140
2017-08-02T05:27:44.077Z,155
2017-08-02T05:28:43.798Z,170
2017-08-02T05:29:44.093Z,180
2017-08-02T05:30:44.087Z,185
2017-08-02T05:31:43.745Z,185
2017-08-02T05:32:43.756Z,185
2017-08-02T05:33:43.747Z,185
2017-08-02T05:34:43.472Z,185
2017-08-02T05:35:43.737Z,190
2017-08-02T05:36:43.748Z,190
2017-08-02T05:37:44.063Z,185
2017-08-02T05:38:44.098Z,180
2017-08-02T05:39:43.434Z,170
2017-08-02T05:40:43.764Z,160
2017-08-02T05:41:43.756Z,155
2017-08-02T05:42:43.755Z,160
2017-08-02T05:43:43.761Z,170
2017-08-02T05:44:44.068Z,170
2017-08-02T05:45:44.068Z,165
2017-08-02T05:46:43.756Z,160
2017-08-02T05:47:43.443Z,155
2017-08-02T05:48:44.059Z,150
2017-08-02T05:49:43.728Z,150
2017-08-02T05:50:44.052Z,150
2017-08-02T05:51:43.737Z,150
2017-08-02T05:52:43.737Z,145
2017-08-02T05:53:43.089Z,145
2017-08-02T05:54:43.426Z,145
2017-08-02T05:55:43.722Z,150
2017-08-02T05:56:43.429Z,150
2017-08-02T05:57:44.090Z,160
2017-08-02T05:58:44.057Z,165
2017-08-02T05:59:44.055Z,170
2017-08-02T06:00:44.046Z,180
2017-08-02T06:01:44.047Z,185
2017-08-02T06:02:43.737Z,190
2017-08-02T06:03:43.732Z,200
2017-08-02T06:04:43.720Z,205
2017-08-02T06:05:44.044Z,210
2017-08-02T06:06:43.726Z,215
2017-08-02T06:07:44.042Z,215
2017-08-02T06:08:43.417Z,220
2017-08-02T06:09:44.061Z,225
2017-08-02T06:10:43.729Z,230
2017-08-02T06:11:43.393Z,235
2017-08-02T06:12:43.389Z,245
2017-08-02T06:13:43.715Z,250
2017-08-02T06:14:44.066Z,255
2017-08-02T06:15:43.733Z,265
2017-08-02T06:16:43.761Z,275
2017-08-02T06:17:43.719Z,280
2017-08-02T06:18:43.770Z,295
2017-08-02T06:19:44.054Z,300
2017-08-02T06:20:43.728Z,305
2017-08-02T06:21:43.737Z,310
2017-08-02T06:22:44.050Z,310
2017-08-02T06:23:43.712Z,310
2017-08-02T06:24:44.027Z,320
2017-08-02T06:25:44.042Z,320
2017-08-02T06:26:43.743Z,320
2017-08-02T06:27:43.730Z,310
2017-08-02T06:28:44.069Z,300
2017-08-02T06:29:43.753Z,280
2017-08-02T06:30:44.083Z,255
2017-08-02T06:31:43.713Z,255
2017-08-02T06:32:43.739Z,265
2017-08-02T06:33:43.709Z,305
2017-08-02T06:34:43.718Z,330
2017-08-02T06:35:43.402Z,360
2017-08-02T06:36:43.718Z,395
2017-08-02T06:37:43.725Z,390
2017-08-02T06:38:44.043Z,305
2017-08-02T06:39:44.052Z,210
2017-08-02T06:40:43.409Z,190
2017-08-02T06:41:44.058Z,215
2017-08-02T06:42:43.730Z,245
2017-08-02T06:43:44.071Z,265
2017-08-02T06:44:43.738Z,300
2017-08-02T06:45:43.423Z,300
2017-08-02T06:46:43.732Z,310
2017-08-02T06:47:43.401Z,335
2017-08-02T06:48:44.069Z,360
2017-08-02T06:49:44.054Z,385
2017-08-02T06:50:43.776Z,335
2017-08-02T06:51:43.728Z,270
2017-08-02T06:52:43.088Z,245
2017-08-02T06:53:44.099Z,290
2017-08-02T06:54:44.097Z,345
2017-08-02T06:55:43.791Z,355
2017-08-02T06:56:43.729Z,325
2017-08-02T06:57:43.457Z,340
2017-08-02T06:58:44.088Z,375
2017-08-02T06:59:43.737Z,330
2017-08-02T07:00:44.064Z,295
2017-08-02T07:01:44.079Z,325
2017-08-02T07:02:43.739Z,380
2017-08-02T07:03:43.418Z,425
2017-08-02T07:04:44.060Z,420
2017-08-02T07:05:43.757Z,420
2017-08-02T07:06:43.431Z,425
2017-08-02T07:07:44.097Z,425
2017-08-02T07:08:43.751Z,400
2017-08-02T07:09:44.102Z,380
2017-08-02T07:10:43.447Z,375
2017-08-02T07:11:43.444Z,380
2017-08-02T07:12:43.762Z,385
2017-08-02T07:13:43.789Z,380
2017-08-02T07:14:44.125Z,365
2017-08-02T07:15:43.799Z,350
2017-08-02T07:16:44.111Z,325
2017-08-02T07:17:44.089Z,285
2017-08-02T07:18:44.082Z,260
2017-08-02T07:19:44.088Z,240
2017-08-02T07:20:43.465Z,225
2017-08-02T07:21:43.825Z,225
2017-08-02T07:22:43.820Z,230
2017-08-02T07:23:44.125Z,255
2017-08-02T07:24:43.822Z,260
2017-08-02T07:25:43.801Z,275
2017-08-02T07:26:43.809Z,295
2017-08-02T07:27:43.798Z,315
2017-08-02T07:28:44.104Z,335
2017-08-02T07:29:43.826Z,345
2017-08-02T07:30:44.117Z,340
2017-08-02T07:31:43.474Z,340
2017-08-02T07:32:44.117Z,335
2017-08-02T07:33:43.825Z,340
2017-08-02T07:34:43.797Z,330
2017-08-02T07:35:43.818Z,335
2017-08-02T07:36:43.820Z,355
2017-08-02T07:37:43.851Z,375
2017-08-02T07:38:43.807Z,395
2017-08-02T07:39:43.812Z,405
2017-08-02T07:40:43.836Z,425
2017-08-02T07:41:43.816Z,425
2017-08-02T07:42:43.506Z,435
2017-08-02T07:43:43.181Z,430
2017-08-02T07:44:44.146Z,425
2017-08-02T07:45:44.143Z,415
2017-08-02T07:46:43.514Z,415
2017-08-02T07:47:43.823Z,430
2017-08-02T07:48:43.517Z,430
2017-08-02T07:49:44.173Z,435
2017-08-02T07:50:43.851Z,445
2017-08-02T07:51:43.204Z,465
2017-08-02T07:52:44.180Z,490
2017-08-02T07:53:43.524Z,495
2017-08-02T07:54:44.166Z,490
2017-08-02T07:55:44.183Z,465
2017-08-02T07:56:43.851Z,460
2017-08-02T07:57:43.549Z,410
2017-08-02T07:58:44.196Z,400
2017-08-02T07:59:44.176Z,385
2017-08-02T08:00:43.875Z,370
2017-08-02T08:01:43.865Z,360
2017-08-02T08:02:44.207Z,340
2017-08-02T08:03:43.555Z,355
2017-08-02T08:04:43.904Z,410
2017-08-02T08:05:43.549Z,460
2017-08-02T08:06:43.569Z,475
2017-08-02T08:07:43.896Z,490
2017-08-02T08:08:43.568Z,490
2017-08-02T08:09:43.552Z,515
2017-08-02T08:10:44.229Z,515
2017-08-02T08:11:44.295Z,520
2017-08-02T08:12:44.216Z,500
2017-08-02T08:13:43.889Z,490
2017-08-02T08:14:44.234Z,490
2017-08-02T08:15:43.898Z,500
2017-08-02T08:16:43.909Z,475
2017-08-02T08:17:43.606Z,485
2017-08-02T08:18:43.913Z,525
2017-08-02T08:19:44.231Z,510
2017-08-02T08:20:44.238Z,525
2017-08-02T08:21:43.910Z,555
2017-08-02T08:22:44.233Z,555
2017-08-02T08:23:43.931Z,500
2017-08-02T08:24:43.913Z,450
2017-08-02T08:25:43.937Z,415
2017-08-02T08:26:43.978Z,440
2017-08-02T08:27:43.956Z,430
2017-08-02T08:28:43.618Z,405
2017-08-02T08:29:44.282Z,425
2017-08-02T08:30:43.952Z,435
2017-08-02T08:31:43.661Z,455
2017-08-02T08:32:43.644Z,525
2017-08-02T08:33:43.936Z,500
2017-08-02T08:34:43.961Z,410
2017-08-02T08:35:43.948Z,350
2017-08-02T08:36:43.983Z,305
2017-08-02T08:37:43.951Z,320
2017-08-02T08:38:43.994Z,345
2017-08-02T08:39:43.987Z,345
2017-08-02T08:40:43.663Z,340
2017-08-02T08:41:43.649Z,380
2017-08-02T08:42:44.278Z,405
2017-08-02T08:43:43.657Z,385
2017-08-02T08:44:44.369Z,360
2017-08-02T08:45:43.971Z,390
2017-08-02T08:46:43.977Z,475
2017-08-02T08:47:43.997Z,500
2017-08-02T08:48:44.298Z,440
2017-08-02T08:49:44.351Z,395
2017-08-02T08:50:43.998Z,425
2017-08-02T08:51:43.702Z,485
2017-08-02T08:52:43.984Z,535
2017-08-02T08:53:44.000Z,505
2017-08-02T08:54:44.010Z,495
2017-08-02T08:55:43.990Z,505
2017-08-02T08:56:43.351Z,510
2017-08-02T08:57:43.999Z,460
2017-08-02T08:58:44.026Z,420
2017-08-02T08:59:44.012Z,405
2017-08-02T09:00:44.365Z,395
2017-08-02T09:01:43.726Z,440
2017-08-02T09:02:44.049Z,430
2017-08-02T09:03:44.013Z,410
2017-08-02T09:04:43.713Z,455
2017-08-02T09:05:43.701Z,475
2017-08-02T09:06:44.345Z,495
2017-08-02T09:07:44.036Z,520
2017-08-02T09:08:44.037Z,465
2017-08-02T09:09:44.054Z,435
2017-08-02T09:10:43.743Z,390
2017-08-02T09:11:43.736Z,385
2017-08-02T09:12:44.046Z,420
2017-08-02T09:13:44.428Z,475
2017-08-02T09:14:43.729Z,470
2017-08-02T09:15:44.392Z,420
2017-08-02T09:16:43.737Z,375
2017-08-02T09:17:44.056Z,385
2017-08-02T09:18:44.397Z,395
2017-08-02T09:19:44.105Z,415
2017-08-02T09:20:43.747Z,405
2017-08-02T09:21:44.070Z,420
2017-08-02T09:22:44.143Z,445
2017-08-02T09:23:44.070Z,415
2017-08-02T09:24:43.757Z,435
2017-08-02T09:25:43.778Z,435
2017-08-02T09:26:43.765Z,480
2017-08-02T09:27:44.116Z,430
2017-08-02T09:28:44.446Z,425
2017-08-02T09:29:44.140Z,445
2017-08-02T09:30:44.108Z,420
2017-08-02T09:31:44.099Z,415
2017-08-02T09:32:44.437Z,405
2017-08-02T09:33:44.433Z,455
2017-08-02T09:34:44.430Z,515
2017-08-02T09:35:44.468Z,495
2017-08-02T09:36:44.443Z,495
2017-08-02T09:37:43.803Z,490
2017-08-02T09:38:44.462Z,510
2017-08-02T09:39:44.140Z,585
2017-08-02T09:40:43.821Z,735
2017-08-02T09:41:44.455Z,730
2017-08-02T09:42:44.174Z,620
2017-08-02T09:43:43.505Z,550
2017-08-02T09:44:43.832Z,490
2017-08-02T09:45:43.861Z,450
2017-08-02T09:46:44.474Z,495
2017-08-02T09:47:44.169Z,530
2017-08-02T09:48:44.177Z,550
2017-08-02T09:49:44.371Z,545
2017-08-02T09:50:44.210Z,575
2017-08-02T09:51:44.244Z,600
2017-08-02T09:52:43.857Z,635
2017-08-02T09:53:44.509Z,580
2017-08-02T09:54:43.867Z,485
2017-08-02T09:55:44.188Z,420
2017-08-02T09:56:44.219Z,335
2017-08-02T09:57:44.208Z,405
2017-08-02T09:58:44.199Z,615
2017-08-02T09:59:44.222Z,690
2017-08-02T10:00:44.540Z,650
2017-08-02T10:01:44.218Z,650
2017-08-02T10:02:44.553Z,620
2017-08-02T10:03:44.234Z,565
2017-08-02T10:04:44.558Z,565
2017-08-02T10:05:44.261Z,625
2017-08-02T10:06:43.912Z,625
2017-08-02T10:07:44.245Z,580
2017-08-02T10:08:44.257Z,660
2017-08-02T10:09:43.637Z,735
2017-08-02T10:10:44.259Z,745
2017-08-02T10:11:43.618Z,705
2017-08-02T10:12:44.265Z,735
2017-08-02T10:13:43.948Z,675
2017-08-02T10:14:43.949Z,635
2017-08-02T10:15:44.277Z,580
2017-08-02T10:16:43.634Z,530
2017-08-02T10:17:44.307Z,525
2017-08-02T10:18:44.333Z,505
2017-08-02T10:19:44.296Z,555
2017-08-02T10:20:44.341Z,540
2017-08-02T10:21:44.326Z,425
2017-08-02T10:22:44.649Z,275
2017-08-02T10:23:44.319Z,200
2017-08-02T10:24:44.062Z,150
2017-08-02T10:25:43.685Z,110
2017-08-02T10:26:44.341Z,100
2017-08-02T10:27:43.710Z,110
2017-08-02T10:28:44.093Z,175
2017-08-02T10:29:44.221Z,220
2017-08-02T10:30:44.371Z,310
2017-08-02T10:31:44.692Z,390
2017-08-02T10:32:44.689Z,415
2017-08-02T10:33:44.686Z,445
2017-08-02T10:34:44.954Z,415
2017-08-02T10:35:44.721Z,360
2017-08-02T10:36:44.371Z,320
2017-08-02T10:37:43.728Z,340
2017-08-02T10:38:43.743Z,325
2017-08-02T10:39:43.750Z,335
2017-08-02T10:40:44.404Z,285
2017-08-02T10:41:44.720Z,260
2017-08-02T10:42:44.714Z,260
2017-08-02T10:43:44.721Z,300
2017-08-02T10:44:44.397Z,315
2017-08-02T10:45:44.399Z,305
2017-08-02T10:46:44.426Z,315
2017-08-02T10:47:44.431Z,385
2017-08-02T10:48:44.413Z,435
2017-08-02T10:49:44.420Z,400
2017-08-02T10:50:44.755Z,385
2017-08-02T10:51:43.783Z,360
2017-08-02T10:52:44.768Z,390
2017-08-02T10:53:44.438Z,385
2017-08-02T10:54:44.482Z,360
2017-08-02T10:55:44.767Z,320
2017-08-02T10:56:44.437Z,305
2017-08-02T10:57:44.760Z,320
2017-08-02T10:58:44.796Z,365
2017-08-02T10:59:44.771Z,380
2017-08-02T11:00:44.152Z,350
2017-08-02T11:01:44.482Z,350
2017-08-02T11:02:44.807Z,390
2017-08-02T11:03:44.150Z,385
2017-08-02T11:04:43.842Z,450
2017-08-02T11:05:44.798Z,405
2017-08-02T11:06:44.508Z,450
2017-08-02T11:07:44.170Z,500
2017-08-02T11:08:44.478Z,505
2017-08-02T11:09:44.480Z,495
2017-08-02T11:10:44.804Z,455
2017-08-02T11:11:44.527Z,445
2017-08-02T11:12:44.496Z,490
2017-08-02T11:13:44.830Z,510
2017-08-02T11:14:44.826Z,540
2017-08-02T11:15:44.837Z,530
2017-08-02T11:16:44.827Z,490
2017-08-02T11:17:43.878Z,455
2017-08-02T11:18:44.218Z,465
2017-08-02T11:19:44.565Z,485
2017-08-02T11:20:44.552Z,490
2017-08-02T11:21:44.876Z,505
2017-08-02T11:22:44.890Z,430
2017-08-02T11:23:44.229Z,460
2017-08-02T11:24:44.886Z,485
2017-08-02T11:25:44.551Z,505
2017-08-02T11:26:44.545Z,525
2017-08-02T11:27:44.238Z,515
2017-08-02T11:28:44.900Z,460
2017-08-02T11:29:44.293Z,410
2017-08-02T11:30:44.909Z,435
2017-08-02T11:31:44.269Z,395
2017-08-02T11:32:44.943Z,445
2017-08-02T11:33:44.902Z,415
2017-08-02T11:34:44.908Z,410
2017-08-02T11:35:44.626Z,465
2017-08-02T11:36:44.276Z,410
2017-08-02T11:37:44.617Z,455
2017-08-02T11:38:44.272Z,540
2017-08-02T11:39:44.940Z,545
2017-08-02T11:40:44.623Z,600
2017-08-02T11:41:44.620Z,660
2017-08-02T11:42:44.625Z,625
2017-08-02T11:43:44.641Z,570
2017-08-02T11:44:44.632Z,555
2017-08-02T11:45:44.965Z,565
2017-08-02T11:46:44.313Z,635
2017-08-02T11:47:44.328Z,625
2017-08-02T11:48:44.362Z,575
2017-08-02T11:49:44.977Z,520
2017-08-02T11:50:44.985Z,480
2017-08-02T11:51:44.666Z,415
2017-08-02T11:52:45.014Z,435
2017-08-02T11:53:45.002Z,480
2017-08-02T11:54:45.026Z,450
2017-08-02T11:55:44.383Z,395
2017-08-02T11:56:45.037Z,400
2017-08-02T11:57:44.453Z,370
2017-08-02T11:58:45.028Z,320
2017-08-02T11:59:45.030Z,295
2017-08-02T12:00:44.715Z,285
2017-08-02T12:01:44.409Z,280
2017-08-02T12:02:44.729Z,280
2017-08-02T12:03:45.076Z,290
2017-08-02T12:04:44.471Z,290
2017-08-02T12:05:44.423Z,305
2017-08-02T12:06:45.056Z,355
2017-08-02T12:07:44.763Z,365
2017-08-02T12:08:44.444Z,370
2017-08-02T12:09:44.771Z,375
2017-08-02T12:10:44.476Z,395
2017-08-02T12:11:45.090Z,395
2017-08-02T12:12:45.102Z,390
2017-08-02T12:13:44.465Z,390
2017-08-02T12:14:44.798Z,395
2017-08-02T12:15:44.804Z,400
2017-08-02T12:16:44.825Z,405
2017-08-02T12:17:45.133Z,405
2017-08-02T12:18:44.813Z,410
2017-08-02T12:19:44.826Z,435
2017-08-02T12:20:45.148Z,460
2017-08-02T12:21:45.177Z,465
2017-08-02T12:22:44.500Z,465
2017-08-02T12:23:45.177Z,480
2017-08-02T12:24:45.148Z,490
2017-08-02T12:25:44.874Z,490
2017-08-02T12:26:44.870Z,485
2017-08-02T12:27:44.204Z,505
2017-08-02T12:28:45.170Z,465
2017-08-02T12:29:44.861Z,445
2017-08-02T12:30:45.212Z,450
2017-08-02T12:31:44.232Z,440
2017-08-02T12:32:44.557Z,405
2017-08-02T12:33:45.199Z,405
2017-08-02T12:34:44.889Z,405
2017-08-02T12:35:44.888Z,415
2017-08-02T12:36:44.898Z,410
2017-08-02T12:37:44.900Z,400
2017-08-02T12:38:44.905Z,395
2017-08-02T12:39:44.601Z,405
2017-08-02T12:40:44.928Z,420
2017-08-02T12:41:44.657Z,415
2017-08-02T12:42:45.261Z,375
2017-08-02T12:43:44.612Z,365
2017-08-02T12:44:44.630Z,345
2017-08-02T12:45:45.277Z,360
2017-08-02T12:46:44.622Z,420
2017-08-02T12:47:44.955Z,385
2017-08-02T12:48:45.284Z,360
2017-08-02T12:49:45.283Z,315
2017-08-02T12:50:44.964Z,305
2017-08-02T12:51:44.333Z,265
2017-08-02T12:52:44.977Z,280
2017-08-02T12:53:45.301Z,265
2017-08-02T12:54:45.321Z,260
2017-08-02T12:55:45.329Z,255
2017-08-02T12:56:45.327Z,255
2017-08-02T12:57:44.687Z,255
2017-08-02T12:58:45.329Z,245
2017-08-02T12:59:45.032Z,245
2017-08-02T13:00:45.050Z,240
2017-08-02T13:01:45.047Z,245
2017-08-02T13:02:45.027Z,240
2017-08-02T13:03:44.727Z,290
2017-08-02T13:04:45.047Z,335
2017-08-02T13:05:45.062Z,320
2017-08-02T13:06:44.414Z,290
2017-08-02T13:07:45.425Z,250
2017-08-02T13:08:45.381Z,220
2017-08-02T13:09:45.100Z,215
2017-08-02T13:10:45.401Z,215
2017-08-02T13:11:45.407Z,210
2017-08-02T13:12:45.106Z,205
2017-08-02T13:13:45.414Z,200
2017-08-02T13:14:45.413Z,200
2017-08-02T13:15:45.101Z,205
2017-08-02T13:16:45.422Z,205
2017-08-02T13:17:44.470Z,205
2017-08-02T13:18:45.453Z,200
2017-08-02T13:19:44.785Z,205
2017-08-02T13:20:45.462Z,205
2017-08-02T13:21:44.796Z,225
2017-08-02T13:22:44.817Z,210
2017-08-02T13:23:45.443Z,220
2017-08-02T13:24:45.136Z,225
2017-08-02T13:25:44.825Z,245
2017-08-02T13:26:45.160Z,260
2017-08-02T13:27:44.831Z,270
2017-08-02T13:28:45.166Z,280
2017-08-02T13:29:45.470Z,295
2017-08-02T13:30:45.156Z,320
2017-08-02T13:31:45.487Z,305
2017-08-02T13:32:45.165Z,295
2017-08-02T13:33:45.512Z,260
2017-08-02T13:34:45.567Z,260
2017-08-02T13:35:45.203Z,280
2017-08-02T13:36:45.504Z,315
2017-08-02T13:37:45.187Z,280
2017-08-02T13:38:44.917Z,250
2017-08-02T13:39:45.227Z,240
2017-08-02T13:40:45.249Z,265
2017-08-02T13:41:45.222Z,245
2017-08-02T13:42:45.232Z,220
2017-08-02T13:43:45.239Z,215
2017-08-02T13:44:44.896Z,210
2017-08-02T13:45:45.557Z,205
2017-08-02T13:46:45.255Z,205
2017-08-02T13:47:45.576Z,205
2017-08-02T13:48:45.253Z,215
2017-08-02T13:49:45.582Z,235
2017-08-02T13:50:45.266Z,250
2017-08-02T13:51:45.599Z,255
2017-08-02T13:52:45.250Z,290
2017-08-02T13:53:45.308Z,330
2017-08-02T13:54:45.588Z,320
2017-08-02T13:55:45.310Z,285
2017-08-02T13:56:44.962Z,255
2017-08-02T13:57:45.624Z,265
2017-08-02T13:58:45.299Z,280
2017-08-02T13:59:45.613Z,330
2017-08-02T14:00:44.965Z,325
2017-08-02T14:01:45.298Z,275
2017-08-02T14:02:44.986Z,240
2017-08-02T14:03:45.312Z,230